Latest Weather Observations for Swan Hill

IDV60801

Issued at 7:02 pm EST Friday 6 May 2016 (issued every 30 minutes, with the page automatically refreshed every 10 minutes)

About weather observations | Map of weather stations | Latest weather observations for VIC | Other Formats
Station Details ID: 077094 Name: SWAN HILL AERODROME Lat: -35.38 Lon: 143.54 Height: 71.0 m
Data from the previous 72 hours. | See also: Recent months at Swan Hill
Date/Time
EST
Temp
°C
App
Temp
°C
Dew
Point
Rel
Hum
%
Delta-T
°C
Wind Press
QNH
hPa
Press
MSL
hPa
Rain
since 9 am
mm
Dir
 
Spd
km/h
Gust
km/h
Spd
kts
Gust
kts
06/07:00pm 19.6 16.6 7.7 46 6.1 NNE 13 17 7 9 1015.6 1015.7 0.0
06/06:30pm 20.5 17.8 7.2 42 6.8 NNE 11 13 6 7 1015.3 1015.4 0.0
06/06:00pm 21.7 18.9 6.8 38 7.6 NNE 11 13 6 7 1015.0 1015.1 0.0
06/05:30pm 23.1 20.3 6.8 35 8.4 NNE 11 15 6 8 1014.5 1014.5 0.0
06/05:00pm 24.8 21.6 7.0 32 9.3 NNE 13 15 7 8 1014.3 1014.3 0.0
06/04:30pm 25.5 21.9 6.7 30 9.8 NNE 15 20 8 11 1014.2 1014.2 0.0
06/04:00pm 26.0 22.2 5.6 27 10.5 N 15 20 8 11 1014.3 1014.3 0.0
06/03:30pm 26.1 22.6 7.2 30 10.0 NNW 15 22 8 12 1014.5 1014.5 0.0
06/03:00pm 26.1 22.0 6.2 28 10.4 N 17 22 9 12 1014.5 1014.5 0.0
06/02:30pm 26.2 22.3 7.3 30 10.0 N 17 28 9 15 1014.5 1014.5 0.0
06/02:00pm 25.9 22.0 7.0 30 10.0 N 17 24 9 13 1014.9 1014.9 0.0
06/01:30pm 25.9 22.5 7.5 31 9.8 N 15 22 8 12 1015.0 1015.1 0.0
06/01:00pm 25.5 22.0 7.1 31 9.7 N 15 22 8 12 1015.3 1015.4 0.0
06/12:30pm 25.3 22.0 7.9 33 9.3 NW 15 19 8 10 1015.7 1015.8 0.0
06/12:00pm 24.5 21.6 8.0 35 8.8 NNW 13 20 7 11 1016.1 1016.2 0.0
06/11:30am 23.2 19.9 8.1 38 8.0 NW 15 20 8 11 1016.6 1016.7 0.0
06/11:00am 21.9 18.9 9.1 44 6.8 NW 15 19 8 10 1017.0 1017.1 0.0
06/10:30am 20.3 17.2 8.9 48 6.0 NW 15 19 8 10 1017.0 1017.1 0.0
06/10:00am 18.7 15.8 9.8 56 4.7 NNW 15 19 8 10 1017.0 1017.1 0.0
06/09:30am 17.4 14.5 9.6 60 4.1 NNW 15 20 8 11 1017.0 1017.1 0.0
06/09:00am 15.6 13.0 9.3 66 3.3 NNW 13 17 7 9 1016.9 1017.0 0.0
06/08:30am 14.3 12.5 9.3 72 2.6 NNW 9 11 5 6 1016.8 1016.9 0.0
06/08:00am 12.6 11.1 9.2 80 1.7 N 7 11 4 6 1016.5 1016.6 0.0
06/07:30am 11.3 9.5 8.0 80 1.6 N 7 9 4 5 1016.1 1016.2 0.0
06/07:00am 11.7 9.7 8.6 81 1.5 N 9 11 5 6 1015.6 1015.7 0.0
06/06:30am 11.8 10.1 8.3 79 1.7 NNE 7 9 4 5 1015.5 1015.6 0.0
06/06:00am 12.0 9.5 8.3 78 1.8 NNE 11 13 6 7 1015.2 1015.3 0.0
06/05:30am 12.9 10.9 8.8 76 2.1 N 9 13 5 7 1015.1 1015.2 0.0
06/05:00am 13.0 10.2 8.7 75 2.2 N 13 15 7 8 1015.0 1015.1 0.0
06/04:30am 13.5 10.0 8.8 73 2.4 N 17 19 9 10 1014.7 1014.7 0.0
06/04:00am 13.1 10.1 9.2 77 2.0 N 15 17 8 9 1014.6 1014.6 0.0
06/03:30am 12.9 10.9 8.6 75 2.2 N 9 13 5 7 1014.8 1014.8 0.0
06/03:00am 14.1 10.6 8.9 71 2.6 N 17 20 9 11 1014.6 1014.6 0.0
06/02:30am 14.6 11.2 9.0 69 2.9 N 17 20 9 11 1014.7 1014.7 0.0
06/02:00am 14.4 11.7 9.0 70 2.8 N 13 17 7 9 1014.9 1014.9 0.0
06/01:30am 13.9 11.9 8.7 71 2.6 NNE 9 11 5 6 1015.0 1015.1 0.0
06/01:00am 15.1 12.8 9.0 67 3.1 NNE 11 13 6 7 1014.9 1014.9 0.0
06/12:30am 15.3 13.1 9.2 67 3.1 NNE 11 13 6 7 1014.8 1014.8 0.0
06/12:00am 14.4 11.8 9.2 71 2.7 N 13 13 7 7 1014.9 1014.9 0.0
 
Date/Time
EST
Temp
°C
App
Temp
°C
Dew
Point
Rel
Hum
%
Delta-T
°C
Wind Press
QNH
hPa
Press
MSL
hPa
Rain
since 9 am
mm
Dir
 
Spd
km/h
Gust
km/h
Spd
kts
Gust
kts
05/11:30pm 15.0 12.4 9.4 69 2.9 N 13 17 7 9 1014.9 1014.9 0.0
05/11:00pm 15.6 13.4 9.3 66 3.3 N 11 13 6 7 1015.0 1015.1 0.0
05/10:30pm 14.6 12.4 9.2 70 2.8 N 11 13 6 7 1015.2 1015.3 0.0
05/10:00pm 14.5 12.8 9.7 73 2.5 NNE 9 11 5 6 1015.4 1015.5 0.0
05/09:30pm 14.1 14.0 9.5 74 2.4 CALM 0 2 0 1 1015.3 1015.4 0.0
05/09:00pm 15.4 13.8 8.9 65 3.3 NNE 7 9 4 5 1015.3 1015.4 0.0
05/08:30pm 16.2 13.6 9.4 64 3.5 NNE 13 15 7 8 1015.1 1015.2 0.0
05/08:00pm 15.4 13.6 9.3 67 3.1 N 9 11 5 6 1015.0 1015.1 0.0
05/07:30pm 15.9 14.4 9.3 65 3.4 N 7 9 4 5 1014.9 1014.9 0.0
05/07:00pm 17.2 15.7 9.1 59 4.2 N 7 9 4 5 1014.7 1014.7 0.0
05/06:30pm 18.1 16.5 8.9 55 4.8 N 7 9 4 5 1014.4 1014.4 0.0
05/06:00pm 19.4 17.5 9.0 51 5.5 N 9 9 5 5 1014.1 1014.1 0.0
05/05:30pm 20.1 17.8 9.1 49 5.8 N 11 13 6 7 1014.0 1014.0 0.0
05/05:00pm 21.4 17.5 8.7 44 6.7 N 19 24 10 13 1013.9 1013.9 0.0
05/04:30pm 22.7 18.7 8.4 40 7.6 N 19 24 10 13 1014.0 1014.0 0.0
05/04:00pm 22.9 18.5 9.0 41 7.5 N 22 30 12 16 1014.1 1014.1 0.0
05/03:30pm 22.9 17.5 8.2 39 7.8 N 26 35 14 19 1014.1 1014.1 0.0
05/03:00pm 23.0 17.8 8.7 40 7.6 NNW 26 32 14 17 1014.3 1014.3 0.0
05/02:30pm 22.8 17.5 8.5 40 7.6 NNW 26 35 14 19 1014.4 1014.4 0.0
05/02:00pm 22.6 17.0 8.7 41 7.4 NNW 28 37 15 20 1014.8 1014.8 0.0
05/01:30pm 22.5 16.9 8.6 41 7.4 N 28 39 15 21 1015.0 1015.1 0.0
05/01:00pm 22.0 17.5 9.9 46 6.6 N 24 35 13 19 1015.6 1015.7 0.0
05/12:30pm 21.5 17.0 10.0 48 6.2 N 24 32 13 17 1016.2 1016.3 0.0
05/12:00pm 20.4 14.9 9.3 49 5.9 N 28 33 15 18 1016.9 1017.0 0.0
05/11:30am 20.1 14.8 9.7 51 5.6 N 28 39 15 21 1017.4 1017.5 0.0
05/11:00am 19.4 15.2 9.9 54 5.1 N 22 32 12 17 1017.9 1018.0 0.0
05/10:30am 18.3 13.7 9.6 57 4.6 N 24 30 13 16 1018.6 1018.6 0.0
05/10:00am 17.4 13.2 9.6 60 4.1 N 22 28 12 15 1018.8 1018.8 0.0
05/09:30am 16.3 11.9 9.0 62 3.8 N 22 28 12 15 1018.9 1018.9 0.0
05/09:00am 15.3 11.5 9.2 67 3.1 N 19 24 10 13 1018.9 1018.9 0.2
05/08:30am 14.1 10.0 8.7 70 2.7 N 20 30 11 16 1018.8 1018.8 0.2
05/08:00am 13.8 10.0 9.0 73 2.4 N 19 24 10 13 1018.8 1018.8 0.2
05/07:30am 13.7 9.9 9.0 73 2.4 N 19 24 10 13 1018.5 1018.5 0.2
05/07:00am 13.3 9.9 9.0 75 2.2 N 17 20 9 11 1018.2 1018.2 0.2
05/06:30am 13.0 10.0 9.3 78 1.9 N 15 19 8 10 1017.9 1018.0 0.2
05/06:00am 12.7 9.6 9.0 78 1.9 N 15 20 8 11 1017.8 1017.9 0.2
05/05:30am 13.2 10.2 9.3 77 2.0 N 15 20 8 11 1017.6 1017.7 0.2
05/05:00am 13.0 10.9 9.6 80 1.7 N 11 15 6 8 1017.4 1017.5 0.2
05/04:30am 13.5 11.8 9.9 79 1.9 N 9 11 5 6 1017.3 1017.4 0.2
05/04:00am 14.1 13.0 10.5 79 1.9 N 7 11 4 6 1017.3 1017.4 0.2
05/03:30am 14.3 13.2 10.7 79 1.9 N 7 9 4 5 1017.4 1017.5 0.2
05/03:00am 14.2 13.1 10.8 80 1.8 N 7 7 4 4 1017.7 1017.8 0.2
05/02:30am 14.1 13.0 10.7 80 1.8 N 7 9 4 5 1017.9 1018.0 0.2
05/02:00am 14.3 12.8 10.7 79 1.9 N 9 11 5 6 1017.8 1017.9 0.2
05/01:30am 14.3 12.8 10.5 78 2.0 N 9 11 5 6 1017.9 1018.0 0.2
05/01:00am 14.8 12.8 10.2 74 2.4 N 11 13 6 7 1018.0 1018.1 0.2
05/12:30am 14.8 12.4 10.0 73 2.5 N 13 15 7 8 1018.3 1018.3 0.2
05/12:00am 14.6 12.2 10.0 74 2.4 N 13 15 7 8 1018.3 1018.3 0.2
 
Date/Time
EST
Temp
°C
App
Temp
°C
Dew
Point
Rel
Hum
%
Delta-T
°C
Wind Press
QNH
hPa
Press
MSL
hPa
Rain
since 9 am
mm
Dir
 
Spd
km/h
Gust
km/h
Spd
kts
Gust
kts
04/11:30pm 15.0 13.2 9.6 70 2.8 N 9 13 5 7 1018.2 1018.2 0.2
04/11:00pm 15.2 13.1 9.6 69 2.9 N 11 13 6 7 1018.3 1018.3 0.2
04/10:30pm 15.1 13.0 9.7 70 2.8 N 11 13 6 7 1018.5 1018.5 0.2
04/10:00pm 15.4 13.2 9.3 67 3.1 NNE 11 13 6 7 1018.5 1018.5 0.2
04/09:30pm 15.5 13.6 9.2 66 3.2 N 9 13 5 7 1018.4 1018.4 0.2
04/09:00pm 15.6 13.4 9.3 66 3.3 N 11 13 6 7 1018.4 1018.4 0.2
04/08:30pm 15.6 13.8 9.3 66 3.3 N 9 11 5 6 1018.2 1018.2 0.2
04/08:00pm 15.4 13.6 9.5 68 3.1 N 9 11 5 6 1017.9 1018.0 0.2
04/07:30pm 15.3 13.9 9.4 68 3.1 N 7 9 4 5 1017.6 1017.7 0.2
04/07:00pm 15.4 13.6 9.5 68 3.1 N 9 9 5 5 1017.4 1017.5 0.2
04/06:30pm 15.7 13.8 9.1 65 3.4 N 9 11 5 6 1017.1 1017.2 0.2
04/06:00pm 15.9 14.0 8.9 63 3.6 N 9 11 5 6 1016.8 1016.9 0.2
04/05:30pm 16.4 14.5 8.9 61 3.9 N 9 13 5 7 1016.6 1016.7 0.2
04/05:00pm 16.5 13.7 8.7 60 4.0 N 13 15 7 8 1016.5 1016.6 0.2
04/04:30pm 16.8 13.5 8.2 57 4.4 N 15 17 8 9 1016.2 1016.3 0.2
04/04:00pm 17.2 13.5 7.8 54 4.8 NNW 17 22 9 12 1016.3 1016.4 0.2
04/03:30pm 17.4 14.0 7.5 52 5.0 NW 15 24 8 13 1016.2 1016.3 0.2
04/03:00pm 17.3 13.4 7.1 51 5.1 NW 17 24 9 13 1016.2 1016.3 0.2
04/02:30pm 17.7 13.4 6.9 49 5.4 WNW 19 24 10 13 1016.2 1016.3 0.2
04/02:00pm 17.3 13.3 6.8 50 5.2 WNW 17 28 9 15 1016.4 1016.5 0.2
04/01:30pm 16.7 12.7 6.8 52 4.9 NW 17 24 9 13 1016.6 1016.7 0.2
04/01:00pm 17.5 13.0 7.0 50 5.2 WNW 20 28 11 15 1016.8 1016.9 0.2
04/12:30pm 16.8 13.0 7.7 55 4.6 WNW 17 20 9 11 1017.2 1017.3 0.2
04/12:00pm 16.1 12.4 6.5 53 4.7 WNW 15 24 8 13 1017.7 1017.8 0.2
04/11:30am 16.1 12.9 8.6 61 3.8 NW 15 20 8 11 1017.8 1017.9 0.2
04/11:00am 15.5 12.8 9.0 65 3.3 NW 13 20 7 11 1018.0 1018.1 0.0
04/10:30am 14.5 11.9 9.5 72 2.6 NNW 13 17 7 9 1018.3 1018.3 0.0
04/10:00am 13.8 11.7 9.6 76 2.2 NW 11 15 6 8 1018.2 1018.2 0.0
04/09:30am 12.8 11.0 9.4 80 1.7 NW 9 13 5 7 1018.2 1018.2 0.0
04/09:00am 11.9 10.4 10.6 92 0.7 W 9 13 5 7 1017.8 1017.9 2.0
04/08:30am 10.3 8.5 9.5 95 0.4 WNW 9 11 5 6 1017.5 1017.6 2.0
04/08:00am 8.7 6.9 7.9 95 0.4 WNW 7 7 4 4 1017.0 1017.1 2.0
04/07:30am 7.6 5.6 6.9 95 0.3 WNW 7 9 4 5 1016.5 1016.6 2.0
04/07:00am 7.6 5.6 6.9 95 0.3 WNW 7 7 4 4 1016.0 1016.1 2.0
04/06:30am 7.6 5.5 6.7 94 0.4 WNW 7 9 4 5 1015.4 1015.5 2.0
04/06:00am 7.6 5.5 6.7 94 0.4 WNW 7 7 4 4 1015.2 1015.3 2.0
04/05:30am 8.3 6.4 7.4 94 0.4 WNW 7 7 4 4 1014.9 1014.9 2.0
04/05:00am 8.9 7.1 8.0 94 0.4 WNW 7 9 4 5 1014.4 1014.4 2.0
04/04:30am 9.3 7.2 8.4 94 0.4 WNW 9 11 5 6 1014.0 1014.0 2.0
04/04:00am 9.9 7.2 9.0 94 0.4 WNW 13 17 7 9 1013.8 1013.8 2.0
04/03:30am 10.0 7.0 9.1 94 0.4 WNW 15 17 8 9 1013.6 1013.6 2.0
04/03:00am 10.0 7.0 9.1 94 0.4 WNW 15 19 8 10 1013.3 1013.3 2.0
04/02:30am 10.2 7.6 9.3 94 0.4 NW 13 15 7 8 1013.4 1013.4 2.0
04/02:00am 10.0 7.3 9.1 94 0.4 NW 13 13 7 7 1013.2 1013.2 2.0
04/01:30am 10.5 8.3 9.4 93 0.6 NW 11 13 6 7 1013.1 1013.1 2.0
04/01:00am 10.9 8.4 9.8 93 0.6 WNW 13 17 7 9 1013.0 1013.0 2.0
04/12:30am 10.9 8.4 9.8 93 0.6 WNW 13 13 7 7 1012.9 1012.9 2.0
04/12:00am 11.2 8.8 10.1 93 0.6 WNW 13 13 7 7 1012.8 1012.8 2.0
 
Date/Time
EST
Temp
°C
App
Temp
°C
Dew
Point
Rel
Hum
%
Delta-T
°C
Wind Press
QNH
hPa
Press
MSL
hPa
Rain
since 9 am
mm
Dir
 
Spd
km/h
Gust
km/h
Spd
kts
Gust
kts
03/11:30pm 11.4 9.0 10.1 92 0.7 WNW 13 15 7 8 1012.4 1012.4 2.0
03/11:00pm 12.0 10.2 10.7 92 0.7 W 11 13 6 7 1012.2 1012.2 2.0
03/10:30pm 12.3 10.9 10.9 91 0.7 W 9 11 5 6 1011.9 1011.9 2.0
03/10:05pm 12.6 10.1 11.2 91 0.7 WSW 15 19 8 10 1011.7 1011.7 2.0
03/10:00pm 12.6 10.1 11.2 91 0.7 WSW 15 19 8 10 1011.8 1011.8 2.0
03/09:30pm 12.9 8.8 11.6 92 0.7 WSW 24 30 13 16 1011.7 1011.7 1.8
03/09:28pm 12.9 8.8 11.6 92 0.7 WSW 24 30 13 16 1011.6 1011.6 1.8
03/09:00pm 12.9 9.8 11.6 92 0.7 WSW 19 24 10 13 1011.1 1011.1 1.8
03/08:52pm 13.0 9.7 11.6 91 0.7 SW 20 28 11 15 1010.9 1010.9 1.8
03/08:44pm 13.1 9.8 11.7 91 0.7 SW 20 26 11 14 1010.7 1010.7 1.8
03/08:35pm 13.2 9.9 11.6 90 0.9 SW 20 28 11 15 1010.5 1010.5 1.8
03/08:30pm 13.2 9.9 11.6 90 0.9 SW 20 28 11 15 1010.3 1010.3 1.8
03/08:24pm 13.2 9.5 11.6 90 0.9 SW 22 32 12 17 1010.2 1010.2 1.8
03/08:00pm 13.8 10.8 12.4 91 0.8 WSW 20 24 11 13 1010.0 1010.0 1.6
03/07:51pm 14.0 9.8 12.4 90 0.9 WSW 26 44 14 24 1009.8 1009.8 1.4
03/07:30pm 14.7 12.3 12.7 88 1.1 W 17 20 9 11 1009.2 1009.2 0.2
03/07:26pm 14.8 12.4 12.5 86 1.3 WNW 17 22 9 12 1009.2 1009.2 0.2

Other Formats:

Comma delimited format used in spreadsheet applications
http://www.bom.gov.au/fwo/IDV60801/IDV60801.94843.axf

JavaScript Object Notation format (JSON) in row-major order
http://www.bom.gov.au/fwo/IDV60801/IDV60801.94843.json